Hovedside
METAR-TAF:

METAR-TAF

Lufthavner :

Københavns lufthavn

København, Danmark

breddegrad: 55-37N, lengdegrad: 012-39E, høyde over havet: 5 m

Gjeldene værobservasjon

Denne rapporten ble laget for 21 minutter siden, klokken 15:20 UTC
Vind 5 kt fra Øst, skiftende mellom Øst-nordøst og Øst-sørøst
Temperatur 15°C
Luftfuktighet 44%
Trykk 1034 hPa
Sikt 10 km eller mer

METAR: EKCH 181520Z AUTO 09005KT 060V120 9999NDV NCD 15/03 Q1034 NOSIG

Tid: 17:41 (15:41 UTC)

Varsel

Denne rapporten ble laget for 4 timer og 39 minutter siden, klokken 11:02 UTC
Varsel gyldig fra 18. klokken 12 UTC til 19. klokken 12 UTC
Vind 5 kt fra Øst
Sikt 10 km eller mer
ingen skyer under 1500 m og ingen bygeskyer

TAF: EKCH 181102Z 1812/1912 08005KT CAVOK

Værobservasjoner og værvarsel for over 4000 flyplasser (METAR- og TAF-rapporter).

Tilgjengelige stasjoner er representert av de røde og gule prikkene på kartet.

Hold musepekeren over prikken for å se navnet på stasjonen.

Klikk så for å se værobservasjoner og -varsler.

For å forandre kartet kan du klikke på den grønne knappen med svart kryss for å zoome inn, på den grønne knappen med strek for å zoome ut, eller på de grønne pilene for å se tilstøtende kart.


METAR-TAF: